sensor_id;sensor_type;location;lat;lon;timestamp;P1;durP1;ratioP1;P2;durP2;ratioP2
34317;SDS011;20582;52.196;20.952;2022-07-23T00:01:23;20.85;;;13.07;;
34317;SDS011;20582;52.196;20.952;2022-07-23T00:03:49;19.08;;;12.68;;
34317;SDS011;20582;52.196;20.952;2022-07-23T00:06:16;21.08;;;13.20;;
34317;SDS011;20582;52.196;20.952;2022-07-23T00:08:42;18.98;;;12.93;;
34317;SDS011;20582;52.196;20.952;2022-07-23T00:11:09;18.58;;;12.30;;
34317;SDS011;20582;52.196;20.952;2022-07-23T00:13:35;19.67;;;13.13;;
34317;SDS011;20582;52.196;20.952;2022-07-23T00:16:01;19.67;;;11.90;;
34317;SDS011;20582;52.196;20.952;2022-07-23T00:18:27;15.60;;;12.30;;
34317;SDS011;20582;52.196;20.952;2022-07-23T00:20:53;18.85;;;12.57;;
34317;SDS011;20582;52.196;20.952;2022-07-23T00:23:19;19.00;;;12.82;;
34317;SDS011;20582;52.196;20.952;2022-07-23T00:25:45;17.17;;;12.30;;
34317;SDS011;20582;52.196;20.952;2022-07-23T00:28:11;18.33;;;12.18;;
34317;SDS011;20582;52.196;20.952;2022-07-23T00:30:37;17.75;;;11.70;;
34317;SDS011;20582;52.196;20.952;2022-07-23T00:33:04;18.80;;;12.07;;
34317;SDS011;20582;52.196;20.952;2022-07-23T00:35:31;17.83;;;12.68;;
34317;SDS011;20582;52.196;20.952;2022-07-23T00:37:58;17.42;;;12.40;;
34317;SDS011;20582;52.196;20.952;2022-07-23T00:40:24;18.30;;;12.40;;
34317;SDS011;20582;52.196;20.952;2022-07-23T00:42:51;17.73;;;12.65;;
34317;SDS011;20582;52.196;20.952;2022-07-23T00:45:17;17.13;;;11.88;;
34317;SDS011;20582;52.196;20.952;2022-07-23T00:47:43;17.05;;;11.95;;
34317;SDS011;20582;52.196;20.952;2022-07-23T00:50:10;15.88;;;12.20;;
34317;SDS011;20582;52.196;20.952;2022-07-23T00:52:36;19.92;;;11.98;;
34317;SDS011;20582;52.196;20.952;2022-07-23T00:55:03;15.45;;;11.65;;
34317;SDS011;20582;52.196;20.952;2022-07-23T00:57:29;16.75;;;12.02;;
34317;SDS011;20582;52.196;20.952;2022-07-23T00:59:55;17.55;;;12.02;;
34317;SDS011;20582;52.196;20.952;2022-07-23T01:02:23;17.98;;;12.15;;
34317;SDS011;20582;52.196;20.952;2022-07-23T01:04:49;17.00;;;11.60;;
34317;SDS011;20582;52.196;20.952;2022-07-23T01:07:15;16.13;;;11.85;;
34317;SDS011;20582;52.196;20.952;2022-07-23T01:09:42;21.02;;;13.10;;
34317;SDS011;20582;52.196;20.952;2022-07-23T01:12:08;18.42;;;11.98;;
34317;SDS011;20582;52.196;20.952;2022-07-23T01:14:34;18.58;;;12.70;;
34317;SDS011;20582;52.196;20.952;2022-07-23T01:17:01;20.70;;;13.05;;
34317;SDS011;20582;52.196;20.952;2022-07-23T01:19:27;19.30;;;12.82;;
34317;SDS011;20582;52.196;20.952;2022-07-23T01:21:53;18.92;;;13.45;;
34317;SDS011;20582;52.196;20.952;2022-07-23T01:24:20;17.38;;;11.98;;
34317;SDS011;20582;52.196;20.952;2022-07-23T01:26:47;17.45;;;12.93;;
34317;SDS011;20582;52.196;20.952;2022-07-23T01:29:13;15.70;;;11.88;;
34317;SDS011;20582;52.196;20.952;2022-07-23T01:31:39;15.90;;;12.68;;
34317;SDS011;20582;52.196;20.952;2022-07-23T01:34:05;19.02;;;13.25;;
34317;SDS011;20582;52.196;20.952;2022-07-23T01:36:32;18.58;;;12.40;;
34317;SDS011;20582;52.196;20.952;2022-07-23T01:38:58;17.23;;;12.20;;
34317;SDS011;20582;52.196;20.952;2022-07-23T01:41:24;16.98;;;13.43;;
34317;SDS011;20582;52.196;20.952;2022-07-23T01:43:50;21.63;;;13.77;;
34317;SDS011;20582;52.196;20.952;2022-07-23T01:46:16;17.98;;;12.70;;
34317;SDS011;20582;52.196;20.952;2022-07-23T01:48:42;19.40;;;13.75;;
34317;SDS011;20582;52.196;20.952;2022-07-23T01:51:08;19.05;;;14.23;;
34317;SDS011;20582;52.196;20.952;2022-07-23T01:53:34;20.27;;;14.32;;
34317;SDS011;20582;52.196;20.952;2022-07-23T01:56:00;19.48;;;13.98;;
34317;SDS011;20582;52.196;20.952;2022-07-23T01:58:27;19.10;;;14.73;;
34317;SDS011;20582;52.196;20.952;2022-07-23T02:00:53;24.27;;;14.98;;
34317;SDS011;20582;52.196;20.952;2022-07-23T02:03:20;18.73;;;14.55;;
34317;SDS011;20582;52.196;20.952;2022-07-23T02:05:46;22.83;;;16.25;;
34317;SDS011;20582;52.196;20.952;2022-07-23T02:08:12;23.23;;;15.82;;
34317;SDS011;20582;52.196;20.952;2022-07-23T02:10:38;22.58;;;15.80;;
34317;SDS011;20582;52.196;20.952;2022-07-23T02:13:04;25.08;;;15.95;;
34317;SDS011;20582;52.196;20.952;2022-07-23T02:15:30;19.90;;;14.85;;
34317;SDS011;20582;52.196;20.952;2022-07-23T02:17:56;19.73;;;14.65;;
34317;SDS011;20582;52.196;20.952;2022-07-23T02:20:22;22.42;;;15.32;;
34317;SDS011;20582;52.196;20.952;2022-07-23T02:22:48;22.83;;;15.57;;
34317;SDS011;20582;52.196;20.952;2022-07-23T02:25:14;22.67;;;15.65;;
34317;SDS011;20582;52.196;20.952;2022-07-23T02:27:40;25.10;;;15.77;;
34317;SDS011;20582;52.196;20.952;2022-07-23T02:30:07;22.25;;;16.23;;
34317;SDS011;20582;52.196;20.952;2022-07-23T02:32:33;22.13;;;15.40;;
34317;SDS011;20582;52.196;20.952;2022-07-23T02:34:59;21.42;;;14.82;;
34317;SDS011;20582;52.196;20.952;2022-07-23T02:37:25;21.08;;;15.30;;
34317;SDS011;20582;52.196;20.952;2022-07-23T02:39:51;22.15;;;16.50;;
34317;SDS011;20582;52.196;20.952;2022-07-23T02:42:17;23.08;;;16.95;;
34317;SDS011;20582;52.196;20.952;2022-07-23T02:44:43;19.98;;;16.35;;
34317;SDS011;20582;52.196;20.952;2022-07-23T02:47:09;21.85;;;16.17;;
34317;SDS011;20582;52.196;20.952;2022-07-23T02:49:35;23.88;;;15.98;;
34317;SDS011;20582;52.196;20.952;2022-07-23T02:52:01;21.75;;;15.65;;
34317;SDS011;20582;52.196;20.952;2022-07-23T02:54:27;25.80;;;16.60;;
34317;SDS011;20582;52.196;20.952;2022-07-23T02:56:53;21.02;;;16.02;;
34317;SDS011;20582;52.196;20.952;2022-07-23T02:59:19;25.55;;;16.33;;
34317;SDS011;20582;52.196;20.952;2022-07-23T03:01:45;21.60;;;16.30;;
34317;SDS011;20582;52.196;20.952;2022-07-23T03:04:11;24.52;;;16.48;;
34317;SDS011;20582;52.196;20.952;2022-07-23T03:06:38;20.92;;;16.35;;
34317;SDS011;20582;52.196;20.952;2022-07-23T03:09:04;22.00;;;16.38;;
34317;SDS011;20582;52.196;20.952;2022-07-23T03:11:30;21.98;;;16.88;;
34317;SDS011;20582;52.196;20.952;2022-07-23T03:13:56;27.42;;;16.17;;
34317;SDS011;20582;52.196;20.952;2022-07-23T03:16:22;21.63;;;16.25;;
34317;SDS011;20582;52.196;20.952;2022-07-23T03:18:48;23.77;;;16.75;;
34317;SDS011;20582;52.196;20.952;2022-07-23T03:21:14;24.20;;;17.17;;
34317;SDS011;20582;52.196;20.952;2022-07-23T03:23:40;25.40;;;17.42;;
34317;SDS011;20582;52.196;20.952;2022-07-23T03:26:06;24.48;;;16.98;;
34317;SDS011;20582;52.196;20.952;2022-07-23T03:28:32;21.30;;;16.92;;
34317;SDS011;20582;52.196;20.952;2022-07-23T03:30:58;26.65;;;17.55;;
34317;SDS011;20582;52.196;20.952;2022-07-23T03:33:24;24.95;;;17.73;;
34317;SDS011;20582;52.196;20.952;2022-07-23T03:35:50;24.20;;;17.60;;
34317;SDS011;20582;52.196;20.952;2022-07-23T03:38:16;26.50;;;17.00;;
34317;SDS011;20582;52.196;20.952;2022-07-23T03:40:42;23.27;;;16.88;;
34317;SDS011;20582;52.196;20.952;2022-07-23T03:43:08;23.17;;;16.45;;
34317;SDS011;20582;52.196;20.952;2022-07-23T03:45:34;21.27;;;17.60;;
34317;SDS011;20582;52.196;20.952;2022-07-23T03:48:00;28.33;;;17.98;;
34317;SDS011;20582;52.196;20.952;2022-07-23T03:50:26;25.17;;;18.98;;
34317;SDS011;20582;52.196;20.952;2022-07-23T03:52:52;24.13;;;17.50;;
34317;SDS011;20582;52.196;20.952;2022-07-23T03:55:19;30.15;;;17.95;;
34317;SDS011;20582;52.196;20.952;2022-07-23T03:57:45;25.98;;;17.33;;
34317;SDS011;20582;52.196;20.952;2022-07-23T04:00:11;24.63;;;17.45;;
34317;SDS011;20582;52.196;20.952;2022-07-23T04:02:38;27.50;;;18.40;;
34317;SDS011;20582;52.196;20.952;2022-07-23T04:05:04;27.55;;;18.40;;
34317;SDS011;20582;52.196;20.952;2022-07-23T04:07:30;26.20;;;17.98;;
34317;SDS011;20582;52.196;20.952;2022-07-23T04:09:56;21.55;;;17.10;;
34317;SDS011;20582;52.196;20.952;2022-07-23T04:12:23;24.92;;;18.30;;
34317;SDS011;20582;52.196;20.952;2022-07-23T04:14:49;28.15;;;17.85;;
34317;SDS011;20582;52.196;20.952;2022-07-23T04:17:15;25.00;;;17.58;;
34317;SDS011;20582;52.196;20.952;2022-07-23T04:19:41;24.08;;;16.92;;
34317;SDS011;20582;52.196;20.952;2022-07-23T04:22:08;24.35;;;17.30;;
34317;SDS011;20582;52.196;20.952;2022-07-23T04:24:35;27.13;;;18.63;;
34317;SDS011;20582;52.196;20.952;2022-07-23T04:27:01;28.38;;;19.10;;
34317;SDS011;20582;52.196;20.952;2022-07-23T04:29:27;24.33;;;18.38;;
34317;SDS011;20582;52.196;20.952;2022-07-23T04:31:53;26.65;;;17.80;;
34317;SDS011;20582;52.196;20.952;2022-07-23T04:34:19;22.75;;;18.70;;
34317;SDS011;20582;52.196;20.952;2022-07-23T04:36:45;24.73;;;18.63;;
34317;SDS011;20582;52.196;20.952;2022-07-23T04:39:11;23.15;;;17.77;;
34317;SDS011;20582;52.196;20.952;2022-07-23T04:41:37;25.02;;;18.27;;
34317;SDS011;20582;52.196;20.952;2022-07-23T04:44:03;25.73;;;17.75;;
34317;SDS011;20582;52.196;20.952;2022-07-23T04:46:29;24.45;;;18.02;;
34317;SDS011;20582;52.196;20.952;2022-07-23T04:48:55;26.67;;;17.75;;
34317;SDS011;20582;52.196;20.952;2022-07-23T04:51:21;23.02;;;17.60;;
34317;SDS011;20582;52.196;20.952;2022-07-23T04:53:47;22.80;;;17.58;;
34317;SDS011;20582;52.196;20.952;2022-07-23T04:56:13;23.70;;;17.75;;
34317;SDS011;20582;52.196;20.952;2022-07-23T04:58:39;24.10;;;17.42;;
34317;SDS011;20582;52.196;20.952;2022-07-23T05:01:06;27.08;;;17.52;;
34317;SDS011;20582;52.196;20.952;2022-07-23T05:03:32;24.85;;;16.98;;
34317;SDS011;20582;52.196;20.952;2022-07-23T05:05:58;25.08;;;17.98;;
34317;SDS011;20582;52.196;20.952;2022-07-23T05:08:24;23.40;;;17.23;;
34317;SDS011;20582;52.196;20.952;2022-07-23T05:10:50;23.85;;;16.48;;
34317;SDS011;20582;52.196;20.952;2022-07-23T05:13:16;24.75;;;17.27;;
34317;SDS011;20582;52.196;20.952;2022-07-23T05:15:42;26.70;;;17.83;;
34317;SDS011;20582;52.196;20.952;2022-07-23T05:18:08;21.45;;;17.27;;
34317;SDS011;20582;52.196;20.952;2022-07-23T05:20:35;20.83;;;15.93;;
34317;SDS011;20582;52.196;20.952;2022-07-23T05:23:01;22.65;;;16.25;;
34317;SDS011;20582;52.196;20.952;2022-07-23T05:25:27;20.13;;;16.38;;
34317;SDS011;20582;52.196;20.952;2022-07-23T05:27:53;22.98;;;15.77;;
34317;SDS011;20582;52.196;20.952;2022-07-23T05:30:19;26.33;;;16.65;;
34317;SDS011;20582;52.196;20.952;2022-07-23T05:32:45;21.80;;;15.63;;
34317;SDS011;20582;52.196;20.952;2022-07-23T05:35:11;19.92;;;14.85;;
34317;SDS011;20582;52.196;20.952;2022-07-23T05:37:37;19.98;;;15.65;;
34317;SDS011;20582;52.196;20.952;2022-07-23T05:40:04;21.20;;;15.27;;
34317;SDS011;20582;52.196;20.952;2022-07-23T05:42:34;20.67;;;15.87;;
34317;SDS011;20582;52.196;20.952;2022-07-23T05:45:00;22.90;;;15.05;;
34317;SDS011;20582;52.196;20.952;2022-07-23T05:47:26;24.50;;;14.73;;
34317;SDS011;20582;52.196;20.952;2022-07-23T05:49:52;19.70;;;14.25;;
34317;SDS011;20582;52.196;20.952;2022-07-23T05:52:18;16.20;;;13.75;;
34317;SDS011;20582;52.196;20.952;2022-07-23T05:54:44;17.50;;;13.73;;
34317;SDS011;20582;52.196;20.952;2022-07-23T05:57:10;17.80;;;13.75;;
34317;SDS011;20582;52.196;20.952;2022-07-23T05:59:36;17.48;;;13.68;;
34317;SDS011;20582;52.196;20.952;2022-07-23T06:02:02;20.17;;;13.15;;
34317;SDS011;20582;52.196;20.952;2022-07-23T06:04:28;19.45;;;12.55;;
34317;SDS011;20582;52.196;20.952;2022-07-23T06:06:54;17.65;;;12.63;;
34317;SDS011;20582;52.196;20.952;2022-07-23T06:09:21;19.38;;;13.55;;
34317;SDS011;20582;52.196;20.952;2022-07-23T06:11:47;16.00;;;13.00;;
34317;SDS011;20582;52.196;20.952;2022-07-23T06:14:13;16.50;;;13.00;;
34317;SDS011;20582;52.196;20.952;2022-07-23T06:16:39;21.30;;;13.48;;
34317;SDS011;20582;52.196;20.952;2022-07-23T06:19:05;20.17;;;12.63;;
34317;SDS011;20582;52.196;20.952;2022-07-23T06:21:31;20.05;;;13.32;;
34317;SDS011;20582;52.196;20.952;2022-07-23T06:23:57;16.42;;;12.85;;
34317;SDS011;20582;52.196;20.952;2022-07-23T06:26:23;17.80;;;12.90;;
34317;SDS011;20582;52.196;20.952;2022-07-23T06:28:49;19.00;;;13.38;;
34317;SDS011;20582;52.196;20.952;2022-07-23T06:31:15;16.65;;;13.40;;
34317;SDS011;20582;52.196;20.952;2022-07-23T06:33:41;16.58;;;12.43;;
34317;SDS011;20582;52.196;20.952;2022-07-23T06:36:07;18.10;;;12.90;;
34317;SDS011;20582;52.196;20.952;2022-07-23T06:38:33;16.75;;;12.70;;
34317;SDS011;20582;52.196;20.952;2022-07-23T06:41:00;17.38;;;12.15;;
34317;SDS011;20582;52.196;20.952;2022-07-23T06:43:26;14.45;;;12.07;;
34317;SDS011;20582;52.196;20.952;2022-07-23T06:45:52;15.15;;;10.80;;
34317;SDS011;20582;52.196;20.952;2022-07-23T06:48:18;16.42;;;11.90;;
34317;SDS011;20582;52.196;20.952;2022-07-23T06:50:43;15.68;;;11.98;;
34317;SDS011;20582;52.196;20.952;2022-07-23T06:53:10;14.23;;;11.95;;
34317;SDS011;20582;52.196;20.952;2022-07-23T06:55:35;14.38;;;11.50;;
34317;SDS011;20582;52.196;20.952;2022-07-23T06:58:03;15.73;;;10.55;;
34317;SDS011;20582;52.196;20.952;2022-07-23T07:00:30;13.07;;;10.60;;
34317;SDS011;20582;52.196;20.952;2022-07-23T07:02:57;16.25;;;11.57;;
34317;SDS011;20582;52.196;20.952;2022-07-23T07:05:23;12.85;;;10.40;;
34317;SDS011;20582;52.196;20.952;2022-07-23T07:07:52;13.13;;;10.35;;
34317;SDS011;20582;52.196;20.952;2022-07-23T07:10:18;16.13;;;10.38;;
34317;SDS011;20582;52.196;20.952;2022-07-23T07:12:44;15.07;;;10.52;;
34317;SDS011;20582;52.196;20.952;2022-07-23T07:15:10;13.57;;;10.38;;
34317;SDS011;20582;52.196;20.952;2022-07-23T07:17:36;14.48;;;9.88;;
34317;SDS011;20582;52.196;20.952;2022-07-23T07:20:03;13.95;;;10.75;;
34317;SDS011;20582;52.196;20.952;2022-07-23T07:22:29;16.17;;;10.43;;
34317;SDS011;20582;52.196;20.952;2022-07-23T07:24:55;13.75;;;9.95;;
34317;SDS011;20582;52.196;20.952;2022-07-23T07:27:21;13.00;;;10.32;;
34317;SDS011;20582;52.196;20.952;2022-07-23T07:29:48;15.55;;;10.23;;
34317;SDS011;20582;52.196;20.952;2022-07-23T07:32:14;18.40;;;10.35;;
34317;SDS011;20582;52.196;20.952;2022-07-23T07:34:40;15.52;;;9.88;;
34317;SDS011;20582;52.196;20.952;2022-07-23T07:37:06;15.10;;;10.02;;
34317;SDS011;20582;52.196;20.952;2022-07-23T07:39:32;14.35;;;10.15;;
34317;SDS011;20582;52.196;20.952;2022-07-23T07:41:58;14.13;;;10.45;;
34317;SDS011;20582;52.196;20.952;2022-07-23T07:44:24;16.50;;;10.38;;
34317;SDS011;20582;52.196;20.952;2022-07-23T07:46:50;13.55;;;10.30;;
34317;SDS011;20582;52.196;20.952;2022-07-23T07:49:16;14.80;;;10.48;;
34317;SDS011;20582;52.196;20.952;2022-07-23T07:51:44;12.95;;;9.75;;
34317;SDS011;20582;52.196;20.952;2022-07-23T07:54:10;12.43;;;9.60;;
34317;SDS011;20582;52.196;20.952;2022-07-23T07:56:36;12.52;;;10.38;;
34317;SDS011;20582;52.196;20.952;2022-07-23T07:59:02;12.95;;;9.80;;
34317;SDS011;20582;52.196;20.952;2022-07-23T08:01:28;13.63;;;10.40;;
34317;SDS011;20582;52.196;20.952;2022-07-23T08:03:54;13.48;;;10.60;;
34317;SDS011;20582;52.196;20.952;2022-07-23T08:06:20;14.23;;;9.95;;
34317;SDS011;20582;52.196;20.952;2022-07-23T08:08:46;16.35;;;10.52;;
34317;SDS011;20582;52.196;20.952;2022-07-23T08:11:12;15.73;;;10.40;;
34317;SDS011;20582;52.196;20.952;2022-07-23T08:13:38;14.50;;;10.18;;
34317;SDS011;20582;52.196;20.952;2022-07-23T08:16:04;15.05;;;10.90;;
34317;SDS011;20582;52.196;20.952;2022-07-23T08:18:30;13.60;;;10.07;;
34317;SDS011;20582;52.196;20.952;2022-07-23T08:20:56;12.25;;;10.18;;
34317;SDS011;20582;52.196;20.952;2022-07-23T08:23:22;17.13;;;10.40;;
34317;SDS011;20582;52.196;20.952;2022-07-23T08:25:48;13.10;;;10.10;;
34317;SDS011;20582;52.196;20.952;2022-07-23T08:28:14;15.15;;;10.60;;
34317;SDS011;20582;52.196;20.952;2022-07-23T08:30:41;12.95;;;10.15;;
34317;SDS011;20582;52.196;20.952;2022-07-23T08:33:12;14.38;;;9.95;;
34317;SDS011;20582;52.196;20.952;2022-07-23T08:35:40;15.48;;;10.52;;
34317;SDS011;20582;52.196;20.952;2022-07-23T08:38:07;14.32;;;9.85;;
34317;SDS011;20582;52.196;20.952;2022-07-23T08:40:34;12.65;;;9.77;;
34317;SDS011;20582;52.196;20.952;2022-07-23T08:43:00;14.45;;;9.63;;
34317;SDS011;20582;52.196;20.952;2022-07-23T08:45:29;13.77;;;10.13;;
34317;SDS011;20582;52.196;20.952;2022-07-23T08:47:57;12.32;;;9.63;;
34317;SDS011;20582;52.196;20.952;2022-07-23T08:50:24;14.77;;;9.63;;
34317;SDS011;20582;52.196;20.952;2022-07-23T08:52:51;14.55;;;9.02;;
34317;SDS011;20582;52.196;20.952;2022-07-23T08:55:18;14.63;;;9.57;;
34317;SDS011;20582;52.196;20.952;2022-07-23T08:57:44;13.65;;;9.20;;
34317;SDS011;20582;52.196;20.952;2022-07-23T09:00:11;13.82;;;9.38;;
34317;SDS011;20582;52.196;20.952;2022-07-23T09:02:38;11.55;;;9.40;;
34317;SDS011;20582;52.196;20.952;2022-07-23T09:05:05;14.13;;;9.20;;
34317;SDS011;20582;52.196;20.952;2022-07-23T09:07:31;15.20;;;8.90;;
34317;SDS011;20582;52.196;20.952;2022-07-23T09:10:09;14.07;;;8.77;;
34317;SDS011;20582;52.196;20.952;2022-07-23T09:12:36;11.90;;;8.68;;
34317;SDS011;20582;52.196;20.952;2022-07-23T09:15:08;10.20;;;7.40;;
34317;SDS011;20582;52.196;20.952;2022-07-23T09:17:38;9.68;;;7.80;;
34317;SDS011;20582;52.196;20.952;2022-07-23T09:20:11;9.63;;;7.70;;
34317;SDS011;20582;52.196;20.952;2022-07-23T09:22:37;11.13;;;7.90;;
34317;SDS011;20582;52.196;20.952;2022-07-23T09:30:11;9.77;;;7.65;;
34317;SDS011;20582;52.196;20.952;2022-07-23T09:32:38;11.07;;;7.72;;
34317;SDS011;20582;52.196;20.952;2022-07-23T09:35:04;9.35;;;8.18;;
34317;SDS011;20582;52.196;20.952;2022-07-23T09:37:30;11.02;;;8.02;;
34317;SDS011;20582;52.196;20.952;2022-07-23T09:40:03;9.50;;;8.00;;
34317;SDS011;20582;52.196;20.952;2022-07-23T09:42:29;10.88;;;8.10;;
34317;SDS011;20582;52.196;20.952;2022-07-23T09:44:56;9.65;;;8.45;;
34317;SDS011;20582;52.196;20.952;2022-07-23T09:47:25;10.35;;;7.82;;
34317;SDS011;20582;52.196;20.952;2022-07-23T09:49:58;9.85;;;8.50;;
34317;SDS011;20582;52.196;20.952;2022-07-23T09:52:31;9.73;;;8.00;;
34317;SDS011;20582;52.196;20.952;2022-07-23T09:54:58;10.43;;;8.45;;
34317;SDS011;20582;52.196;20.952;2022-07-23T09:57:25;12.63;;;8.73;;
34317;SDS011;20582;52.196;20.952;2022-07-23T09:59:52;9.80;;;8.77;;
34317;SDS011;20582;52.196;20.952;2022-07-23T10:02:19;10.40;;;8.05;;
34317;SDS011;20582;52.196;20.952;2022-07-23T10:04:45;11.50;;;8.23;;
34317;SDS011;20582;52.196;20.952;2022-07-23T10:07:11;9.48;;;8.02;;
34317;SDS011;20582;52.196;20.952;2022-07-23T10:09:39;10.30;;;8.63;;
34317;SDS011;20582;52.196;20.952;2022-07-23T10:12:11;8.07;;;7.28;;
34317;SDS011;20582;52.196;20.952;2022-07-23T10:14:41;8.77;;;7.82;;
34317;SDS011;20582;52.196;20.952;2022-07-23T10:17:08;10.40;;;8.05;;
34317;SDS011;20582;52.196;20.952;2022-07-23T10:19:34;11.05;;;9.13;;
34317;SDS011;20582;52.196;20.952;2022-07-23T10:22:01;9.80;;;8.82;;
34317;SDS011;20582;52.196;20.952;2022-07-23T10:24:30;9.63;;;8.73;;
34317;SDS011;20582;52.196;20.952;2022-07-23T10:27:12;9.30;;;8.23;;
34317;SDS011;20582;52.196;20.952;2022-07-23T10:29:42;10.02;;;8.95;;
34317;SDS011;20582;52.196;20.952;2022-07-23T10:32:20;10.27;;;9.27;;
34317;SDS011;20582;52.196;20.952;2022-07-23T10:34:55;11.50;;;10.00;;
34317;SDS011;20582;52.196;20.952;2022-07-23T10:37:32;10.90;;;9.90;;
34317;SDS011;20582;52.196;20.952;2022-07-23T10:40:08;10.95;;;9.30;;
34317;SDS011;20582;52.196;20.952;2022-07-23T10:42:34;10.18;;;9.27;;
34317;SDS011;20582;52.196;20.952;2022-07-23T10:45:01;11.38;;;10.27;;
34317;SDS011;20582;52.196;20.952;2022-07-23T10:47:28;14.90;;;10.10;;
34317;SDS011;20582;52.196;20.952;2022-07-23T10:50:23;10.98;;;9.95;;
34317;SDS011;20582;52.196;20.952;2022-07-23T10:58:01;11.27;;;10.27;;
34317;SDS011;20582;52.196;20.952;2022-07-23T11:00:29;11.05;;;10.05;;
34317;SDS011;20582;52.196;20.952;2022-07-23T11:02:56;11.23;;;9.75;;
34317;SDS011;20582;52.196;20.952;2022-07-23T11:05:42;10.50;;;9.40;;
34317;SDS011;20582;52.196;20.952;2022-07-23T11:34:51;10.10;;;9.20;;
34317;SDS011;20582;52.196;20.952;2022-07-23T11:40:18;11.38;;;8.70;;
34317;SDS011;20582;52.196;20.952;2022-07-23T11:42:55;10.60;;;8.90;;
34317;SDS011;20582;52.196;20.952;2022-07-23T11:45:21;12.90;;;9.20;;
34317;SDS011;20582;52.196;20.952;2022-07-23T11:47:47;10.68;;;9.63;;
34317;SDS011;20582;52.196;20.952;2022-07-23T11:50:13;10.27;;;9.32;;
34317;SDS011;20582;52.196;20.952;2022-07-23T11:52:40;10.40;;;9.15;;
34317;SDS011;20582;52.196;20.952;2022-07-23T11:55:07;9.18;;;8.30;;
34317;SDS011;20582;52.196;20.952;2022-07-23T11:57:40;11.20;;;8.57;;
34317;SDS011;20582;52.196;20.952;2022-07-23T12:00:16;9.63;;;7.95;;
34317;SDS011;20582;52.196;20.952;2022-07-23T12:02:45;10.60;;;8.00;;
34317;SDS011;20582;52.196;20.952;2022-07-23T12:05:16;9.35;;;8.35;;
34317;SDS011;20582;52.196;20.952;2022-07-23T12:07:46;10.10;;;8.48;;
34317;SDS011;20582;52.196;20.952;2022-07-23T12:10:17;9.13;;;8.20;;
34317;SDS011;20582;52.196;20.952;2022-07-23T12:15:10;9.02;;;8.13;;
34317;SDS011;20582;52.196;20.952;2022-07-23T12:17:38;13.07;;;8.40;;
34317;SDS011;20582;52.196;20.952;2022-07-23T12:20:05;9.98;;;8.30;;
34317;SDS011;20582;52.196;20.952;2022-07-23T12:22:36;11.10;;;8.43;;
34317;SDS011;20582;52.196;20.952;2022-07-23T12:25:04;11.43;;;7.65;;
34317;SDS011;20582;52.196;20.952;2022-07-23T12:27:30;10.30;;;7.82;;
34317;SDS011;20582;52.196;20.952;2022-07-23T12:29:57;10.70;;;8.05;;
34317;SDS011;20582;52.196;20.952;2022-07-23T12:32:25;11.05;;;8.02;;
34317;SDS011;20582;52.196;20.952;2022-07-23T12:35:02;9.48;;;7.10;;
34317;SDS011;20582;52.196;20.952;2022-07-23T12:37:29;9.45;;;7.63;;
34317;SDS011;20582;52.196;20.952;2022-07-23T12:39:56;8.75;;;7.10;;
34317;SDS011;20582;52.196;20.952;2022-07-23T12:42:22;8.75;;;7.50;;
34317;SDS011;20582;52.196;20.952;2022-07-23T12:50:31;10.00;;;7.80;;
34317;SDS011;20582;52.196;20.952;2022-07-23T12:53:04;11.02;;;7.75;;
34317;SDS011;20582;52.196;20.952;2022-07-23T12:55:30;10.82;;;8.00;;
34317;SDS011;20582;52.196;20.952;2022-07-23T12:58:06;8.52;;;7.50;;
34317;SDS011;20582;52.196;20.952;2022-07-23T13:00:48;10.52;;;7.60;;
34317;SDS011;20582;52.196;20.952;2022-07-23T13:03:22;9.02;;;8.13;;
34317;SDS011;20582;52.196;20.952;2022-07-23T13:05:48;10.02;;;7.47;;
34317;SDS011;20582;52.196;20.952;2022-07-23T13:08:14;10.35;;;8.13;;
34317;SDS011;20582;52.196;20.952;2022-07-23T13:10:40;8.95;;;7.85;;
34317;SDS011;20582;52.196;20.952;2022-07-23T13:13:09;9.75;;;7.40;;
34317;SDS011;20582;52.196;20.952;2022-07-23T13:15:35;12.82;;;7.43;;
34317;SDS011;20582;52.196;20.952;2022-07-23T13:18:01;9.65;;;7.47;;
34317;SDS011;20582;52.196;20.952;2022-07-23T13:20:27;10.40;;;7.60;;
34317;SDS011;20582;52.196;20.952;2022-07-23T13:22:53;11.25;;;7.82;;
34317;SDS011;20582;52.196;20.952;2022-07-23T13:25:19;11.63;;;7.88;;
34317;SDS011;20582;52.196;20.952;2022-07-23T13:27:47;9.68;;;7.88;;
34317;SDS011;20582;52.196;20.952;2022-07-23T13:30:13;10.77;;;7.82;;
34317;SDS011;20582;52.196;20.952;2022-07-23T13:32:40;9.15;;;7.63;;
34317;SDS011;20582;52.196;20.952;2022-07-23T13:35:06;10.55;;;8.15;;
34317;SDS011;20582;52.196;20.952;2022-07-23T13:37:33;9.95;;;7.90;;
34317;SDS011;20582;52.196;20.952;2022-07-23T13:39:59;12.77;;;7.93;;
34317;SDS011;20582;52.196;20.952;2022-07-23T13:42:25;11.15;;;8.32;;
34317;SDS011;20582;52.196;20.952;2022-07-23T13:44:51;11.70;;;8.20;;
34317;SDS011;20582;52.196;20.952;2022-07-23T13:47:17;9.40;;;7.60;;
34317;SDS011;20582;52.196;20.952;2022-07-23T13:49:43;12.45;;;8.02;;
34317;SDS011;20582;52.196;20.952;2022-07-23T13:52:09;10.75;;;8.80;;
34317;SDS011;20582;52.196;20.952;2022-07-23T13:54:35;12.13;;;8.50;;
34317;SDS011;20582;52.196;20.952;2022-07-23T13:57:01;12.45;;;8.68;;
34317;SDS011;20582;52.196;20.952;2022-07-23T13:59:27;11.18;;;8.48;;
34317;SDS011;20582;52.196;20.952;2022-07-23T14:01:54;14.13;;;8.75;;
34317;SDS011;20582;52.196;20.952;2022-07-23T14:04:20;10.02;;;8.43;;
34317;SDS011;20582;52.196;20.952;2022-07-23T14:06:47;10.60;;;9.07;;
34317;SDS011;20582;52.196;20.952;2022-07-23T14:09:13;12.70;;;8.48;;
34317;SDS011;20582;52.196;20.952;2022-07-23T14:11:39;12.95;;;8.52;;
34317;SDS011;20582;52.196;20.952;2022-07-23T14:14:05;12.55;;;8.85;;
34317;SDS011;20582;52.196;20.952;2022-07-23T14:16:31;11.43;;;8.57;;
34317;SDS011;20582;52.196;20.952;2022-07-23T14:18:57;11.48;;;9.02;;
34317;SDS011;20582;52.196;20.952;2022-07-23T14:21:23;11.60;;;8.88;;
34317;SDS011;20582;52.196;20.952;2022-07-23T14:23:49;11.73;;;8.88;;
34317;SDS011;20582;52.196;20.952;2022-07-23T14:26:15;12.07;;;9.20;;
34317;SDS011;20582;52.196;20.952;2022-07-23T14:28:41;12.02;;;8.88;;
34317;SDS011;20582;52.196;20.952;2022-07-23T14:31:07;12.18;;;8.82;;
34317;SDS011;20582;52.196;20.952;2022-07-23T14:33:33;12.70;;;9.02;;
34317;SDS011;20582;52.196;20.952;2022-07-23T14:35:59;42.47;;;9.60;;
34317;SDS011;20582;52.196;20.952;2022-07-23T14:38:25;50.67;;;9.02;;
34317;SDS011;20582;52.196;20.952;2022-07-23T14:40:51;43.45;;;8.07;;
34317;SDS011;20582;52.196;20.952;2022-07-23T14:43:16;36.30;;;7.82;;
34317;SDS011;20582;52.196;20.952;2022-07-23T14:45:42;36.92;;;8.80;;
34317;SDS011;20582;52.196;20.952;2022-07-23T14:48:08;35.42;;;8.55;;
34317;SDS011;20582;52.196;20.952;2022-07-23T14:50:34;21.55;;;8.38;;
34317;SDS011;20582;52.196;20.952;2022-07-23T14:53:00;22.92;;;8.77;;
34317;SDS011;20582;52.196;20.952;2022-07-23T14:55:26;31.10;;;10.32;;
34317;SDS011;20582;52.196;20.952;2022-07-23T14:57:52;22.63;;;11.10;;
34317;SDS011;20582;52.196;20.952;2022-07-23T15:00:18;17.40;;;9.90;;
34317;SDS011;20582;52.196;20.952;2022-07-23T15:02:44;17.08;;;8.80;;